createdAt,value
2018-08-27T00:01:28.414Z,14.20
2018-08-27T00:03:57.699Z,14.20
2018-08-27T00:06:26.997Z,14.10
2018-08-27T00:08:56.299Z,14.20
2018-08-27T00:11:25.600Z,14.30
2018-08-27T00:13:54.939Z,14.30
2018-08-27T00:16:24.360Z,14.30
2018-08-27T00:18:53.691Z,14.30
2018-08-27T00:21:23.177Z,14.30
2018-08-27T00:23:52.576Z,14.40
2018-08-27T00:26:21.970Z,14.30
2018-08-27T00:28:51.281Z,14.30
2018-08-27T00:31:20.795Z,14.30
2018-08-27T00:33:50.218Z,14.30
2018-08-27T00:36:19.579Z,14.20
2018-08-27T00:38:48.966Z,14.20
2018-08-27T00:41:18.249Z,14.20
2018-08-27T00:43:47.625Z,14.20
2018-08-27T00:46:16.895Z,14.30
2018-08-27T00:48:46.204Z,14.30
2018-08-27T00:51:15.471Z,14.40
2018-08-27T00:53:44.774Z,14.30
2018-08-27T00:56:14.091Z,14.40
2018-08-27T00:58:43.667Z,14.40
2018-08-27T01:01:12.955Z,14.40
2018-08-27T01:03:42.319Z,14.40
2018-08-27T01:06:11.719Z,14.30
2018-08-27T01:08:40.983Z,14.30
2018-08-27T01:11:10.298Z,14.30
2018-08-27T01:13:39.612Z,14.40
2018-08-27T01:16:08.923Z,14.30
2018-08-27T01:18:38.262Z,14.30
2018-08-27T01:21:07.642Z,14.30
2018-08-27T01:23:36.960Z,14.20
2018-08-27T01:26:06.665Z,14.30
2018-08-27T01:28:36.037Z,14.20
2018-08-27T01:31:05.581Z,14.30
2018-08-27T01:33:35.062Z,14.20
2018-08-27T01:36:04.424Z,14.20
2018-08-27T01:38:34.986Z,14.20
2018-08-27T01:41:04.302Z,14.30
2018-08-27T01:43:33.701Z,14.30
2018-08-27T01:46:02.959Z,14.30
2018-08-27T01:48:32.439Z,14.30
2018-08-27T01:51:01.980Z,14.30
2018-08-27T01:53:31.392Z,14.30
2018-08-27T01:56:00.832Z,14.30
2018-08-27T01:58:30.239Z,14.40
2018-08-27T02:00:59.544Z,14.40
2018-08-27T02:03:30.180Z,14.50
2018-08-27T02:05:59.997Z,14.30
2018-08-27T02:08:29.378Z,14.10
2018-08-27T02:10:58.927Z,14.00
2018-08-27T02:13:28.277Z,13.90
2018-08-27T02:15:57.577Z,14.00
2018-08-27T02:18:27.031Z,14.10
2018-08-27T02:20:56.346Z,14.10
2018-08-27T02:23:25.891Z,14.10
2018-08-27T02:25:55.428Z,14.20
2018-08-27T02:28:24.836Z,14.20
2018-08-27T02:30:54.249Z,14.30
2018-08-27T02:33:23.567Z,14.30
2018-08-27T02:35:52.968Z,14.30
2018-08-27T02:38:22.295Z,14.40
2018-08-27T02:40:51.814Z,14.50
2018-08-27T02:43:21.179Z,14.60
2018-08-27T02:45:52.420Z,14.60
2018-08-27T02:48:22.578Z,14.70
2018-08-27T02:50:51.968Z,14.70
2018-08-27T02:53:21.549Z,14.70
2018-08-27T02:55:50.923Z,14.80
2018-08-27T02:58:20.428Z,14.70
2018-08-27T03:00:49.743Z,14.70
2018-08-27T03:03:19.140Z,14.70
2018-08-27T03:05:48.508Z,14.80
2018-08-27T03:08:17.859Z,14.80
2018-08-27T03:10:47.249Z,14.90
2018-08-27T03:13:16.594Z,15.10
2018-08-27T03:15:45.838Z,15.00
2018-08-27T03:18:15.178Z,15.10
2018-08-27T03:20:44.471Z,15.10
2018-08-27T03:23:13.882Z,15.20
2018-08-27T03:25:43.198Z,15.20
2018-08-27T03:28:12.643Z,15.30
2018-08-27T03:30:41.977Z,15.30
2018-08-27T03:33:11.283Z,15.40
2018-08-27T03:35:40.631Z,15.40
2018-08-27T03:38:09.927Z,15.50
2018-08-27T03:40:39.226Z,15.50
2018-08-27T03:43:08.611Z,15.50
2018-08-27T03:45:37.877Z,15.30
2018-08-27T03:48:07.328Z,15.40
2018-08-27T03:50:36.744Z,15.40
2018-08-27T03:53:06.065Z,15.50
2018-08-27T03:55:35.584Z,15.50
2018-08-27T03:58:05.247Z,15.50
2018-08-27T04:00:34.693Z,15.50
2018-08-27T04:03:04.390Z,15.50
2018-08-27T04:05:33.829Z,15.40
2018-08-27T04:08:03.129Z,15.30
2018-08-27T04:10:32.592Z,15.20
2018-08-27T04:13:01.990Z,15.10
2018-08-27T04:15:31.313Z,14.90
2018-08-27T04:18:00.616Z,14.80
2018-08-27T04:20:30.057Z,14.80
2018-08-27T04:22:59.488Z,14.60
2018-08-27T04:25:28.806Z,14.50
2018-08-27T04:27:58.121Z,14.40
2018-08-27T04:30:27.458Z,14.40
2018-08-27T04:32:58.093Z,14.30
2018-08-27T04:35:27.392Z,14.30
2018-08-27T04:37:56.822Z,14.10
2018-08-27T04:40:26.099Z,13.90
2018-08-27T04:42:55.491Z,13.90
2018-08-27T04:45:24.806Z,13.90
2018-08-27T04:47:54.254Z,13.90
2018-08-27T04:50:23.651Z,13.90
2018-08-27T04:52:53.085Z,14.00
2018-08-27T04:55:22.515Z,13.90
2018-08-27T04:57:51.868Z,14.00
2018-08-27T05:00:39.342Z,14.00
2018-08-27T05:03:09.539Z,14.10
2018-08-27T05:05:38.882Z,14.10
2018-08-27T05:08:08.708Z,14.10
2018-08-27T05:10:37.981Z,14.10
2018-08-27T05:13:07.384Z,14.10
2018-08-27T05:15:36.721Z,14.00
2018-08-27T05:18:06.132Z,14.00
2018-08-27T05:20:35.424Z,14.00
2018-08-27T05:23:04.815Z,14.00
2018-08-27T05:25:34.373Z,14.10
2018-08-27T05:28:03.730Z,14.10
2018-08-27T05:30:33.092Z,14.10
2018-08-27T05:33:02.650Z,14.20
2018-08-27T05:35:31.967Z,14.20
2018-08-27T05:38:01.355Z,14.20
2018-08-27T05:40:30.760Z,14.40
2018-08-27T05:43:00.056Z,14.40
2018-08-27T05:45:29.421Z,14.40
2018-08-27T05:47:59.027Z,14.30
2018-08-27T05:50:28.344Z,14.40
2018-08-27T05:52:57.716Z,14.50
2018-08-27T05:55:27.080Z,14.60
2018-08-27T05:57:56.910Z,14.70
2018-08-27T06:00:26.198Z,14.70
2018-08-27T06:02:55.529Z,14.60
2018-08-27T06:05:25.262Z,14.60
2018-08-27T06:07:54.685Z,14.50
2018-08-27T06:10:24.028Z,14.50
2018-08-27T06:12:53.663Z,14.60
2018-08-27T06:15:23.524Z,14.50
2018-08-27T06:17:52.863Z,14.60
2018-08-27T06:20:22.370Z,14.60
2018-08-27T06:22:51.751Z,14.60
2018-08-27T06:25:21.089Z,14.70
2018-08-27T06:27:50.489Z,14.70
2018-08-27T06:30:19.950Z,14.70
2018-08-27T06:32:49.383Z,14.70
2018-08-27T06:35:18.877Z,14.80
2018-08-27T06:37:48.292Z,14.80
2018-08-27T06:40:17.669Z,14.80
2018-08-27T06:42:47.143Z,14.80
2018-08-27T06:45:16.972Z,14.70
2018-08-27T06:47:46.327Z,14.80
2018-08-27T06:50:15.751Z,14.90
2018-08-27T06:52:45.039Z,14.90
2018-08-27T06:55:14.739Z,14.80
2018-08-27T06:57:44.040Z,15.00
2018-08-27T07:00:13.548Z,15.00
2018-08-27T07:02:42.893Z,15.00
2018-08-27T07:05:12.244Z,15.00
2018-08-27T07:07:41.594Z,14.90
2018-08-27T07:10:10.913Z,15.00
2018-08-27T07:12:40.350Z,15.10
2018-08-27T07:15:09.796Z,15.10
2018-08-27T07:17:39.363Z,15.00
2018-08-27T07:20:08.857Z,15.00
2018-08-27T07:22:38.254Z,15.10
2018-08-27T07:25:07.620Z,15.20
2018-08-27T07:27:37.050Z,15.30
2018-08-27T07:30:06.714Z,15.70
2018-08-27T07:32:36.833Z,15.90
2018-08-27T07:35:06.653Z,16.10
2018-08-27T07:37:35.999Z,16.00
2018-08-27T07:40:06.194Z,15.90
2018-08-27T07:42:35.692Z,15.80
2018-08-27T07:45:05.965Z,15.70
2018-08-27T07:47:35.414Z,16.00
2018-08-27T07:50:05.093Z,15.90
2018-08-27T07:52:34.477Z,15.70
2018-08-27T07:55:04.664Z,15.50
2018-08-27T07:57:34.149Z,15.50
2018-08-27T08:00:03.675Z,15.40
2018-08-27T08:02:33.024Z,15.40
2018-08-27T08:05:02.583Z,15.40
2018-08-27T08:07:31.932Z,15.40
2018-08-27T08:10:01.451Z,15.30
2018-08-27T08:12:30.822Z,15.30
2018-08-27T08:15:00.522Z,15.40
2018-08-27T08:17:29.963Z,15.50
2018-08-27T08:19:59.270Z,15.30
2018-08-27T08:22:29.414Z,15.20
2018-08-27T08:24:58.768Z,15.40
2018-08-27T08:27:28.156Z,15.30
2018-08-27T08:29:57.686Z,15.40
2018-08-27T08:32:27.166Z,15.30
2018-08-27T08:34:56.530Z,15.40
2018-08-27T08:37:26.036Z,15.30
2018-08-27T08:39:55.620Z,15.00
2018-08-27T08:42:25.043Z,15.10
2018-08-27T08:44:54.571Z,15.00
2018-08-27T08:47:23.978Z,15.10
2018-08-27T08:49:56.180Z,15.10
2018-08-27T08:52:25.777Z,15.10
2018-08-27T08:54:56.980Z,15.20
2018-08-27T08:57:27.352Z,15.30
2018-08-27T08:59:56.884Z,15.50
2018-08-27T09:02:26.247Z,15.70
2018-08-27T09:04:55.689Z,15.80
2018-08-27T09:07:25.168Z,15.80
2018-08-27T09:09:54.688Z,15.70
2018-08-27T09:12:24.121Z,15.60
2018-08-27T09:14:53.596Z,15.40
2018-08-27T09:17:23.079Z,15.40
2018-08-27T09:19:52.623Z,15.50
2018-08-27T09:22:22.703Z,15.60
2018-08-27T09:24:54.706Z,15.60
2018-08-27T09:27:24.388Z,15.50
2018-08-27T09:29:53.802Z,15.60
2018-08-27T09:32:23.578Z,15.60
2018-08-27T09:34:53.013Z,15.40
2018-08-27T09:37:22.594Z,15.40
2018-08-27T09:39:52.185Z,15.50
2018-08-27T09:42:21.526Z,15.50
2018-08-27T09:44:51.012Z,15.50
2018-08-27T09:47:27.280Z,15.60
2018-08-27T09:49:56.875Z,15.60
2018-08-27T09:52:26.367Z,15.60
2018-08-27T09:54:55.852Z,15.60
2018-08-27T09:57:25.490Z,15.70
2018-08-27T09:59:54.985Z,15.70
2018-08-27T10:02:24.713Z,15.70
2018-08-27T10:04:54.492Z,15.60
2018-08-27T10:07:27.365Z,15.70
2018-08-27T10:09:58.178Z,15.90
2018-08-27T10:12:27.714Z,16.00
2018-08-27T10:14:57.821Z,16.20
2018-08-27T10:17:27.124Z,16.10
2018-08-27T10:19:56.573Z,16.10
2018-08-27T10:22:25.989Z,16.20
2018-08-27T10:24:55.455Z,16.30
2018-08-27T10:27:24.576Z,16.40
2018-08-27T10:29:53.804Z,16.60
2018-08-27T10:32:24.109Z,16.80
2018-08-27T10:34:53.496Z,17.00
2018-08-27T10:37:23.073Z,17.20
2018-08-27T10:39:52.546Z,16.90
2018-08-27T10:42:22.178Z,16.80
2018-08-27T10:44:51.586Z,16.70
2018-08-27T10:47:21.218Z,16.60
2018-08-27T10:49:51.439Z,16.60
2018-08-27T10:52:21.662Z,16.60
2018-08-27T10:54:51.054Z,16.70
2018-08-27T10:57:20.572Z,16.90
2018-08-27T10:59:49.960Z,16.80
2018-08-27T11:02:19.542Z,17.00
2018-08-27T11:04:48.941Z,17.00
2018-08-27T11:07:19.474Z,17.20
2018-08-27T11:09:48.821Z,17.20
2018-08-27T11:12:19.569Z,17.30
2018-08-27T11:14:49.301Z,17.40
2018-08-27T11:17:21.454Z,17.70
2018-08-27T11:19:53.227Z,17.80
2018-08-27T11:22:22.902Z,17.90
2018-08-27T11:24:52.390Z,18.10
2018-08-27T11:27:21.885Z,18.20
2018-08-27T11:29:51.376Z,18.50
2018-08-27T11:32:21.504Z,18.40
2018-08-27T11:34:51.116Z,18.50
2018-08-27T11:37:22.275Z,18.50
2018-08-27T11:39:51.772Z,18.50
2018-08-27T11:42:21.359Z,18.40
2018-08-27T11:44:50.764Z,18.50
2018-08-27T11:47:20.160Z,18.60
2018-08-27T11:49:49.568Z,18.70
2018-08-27T11:52:19.118Z,18.70
2018-08-27T11:54:48.474Z,18.70
2018-08-27T11:57:18.412Z,18.80
2018-08-27T11:59:47.955Z,18.70
2018-08-27T12:02:17.487Z,18.50
2018-08-27T12:04:46.832Z,18.40
2018-08-27T12:07:16.266Z,18.30
2018-08-27T12:09:45.633Z,18.20
2018-08-27T12:12:15.455Z,18.20
2018-08-27T12:14:44.971Z,18.10
2018-08-27T12:17:14.665Z,18.20
2018-08-27T12:19:44.399Z,18.10
2018-08-27T12:22:14.162Z,18.20
2018-08-27T12:24:45.197Z,18.20
2018-08-27T12:27:15.643Z,18.30
2018-08-27T12:29:45.130Z,18.20
2018-08-27T12:32:15.082Z,18.30
2018-08-27T12:34:44.560Z,18.70
2018-08-27T12:37:14.528Z,18.90
2018-08-27T12:39:43.911Z,19.40
2018-08-27T12:42:13.345Z,20.10
2018-08-27T12:44:42.772Z,20.50
2018-08-27T12:47:12.108Z,21.00
2018-08-27T12:49:41.579Z,20.90
2018-08-27T12:52:11.228Z,21.20
2018-08-27T12:54:42.193Z,21.00
2018-08-27T12:57:11.598Z,21.00
2018-08-27T12:59:41.465Z,21.10
2018-08-27T13:02:10.893Z,21.00
2018-08-27T13:04:40.547Z,20.80
2018-08-27T13:07:10.237Z,21.40
2018-08-27T13:09:39.506Z,22.10
2018-08-27T13:12:08.701Z,21.90
2018-08-27T13:14:37.860Z,21.50
2018-08-27T13:17:06.979Z,21.40
2018-08-27T13:19:36.086Z,21.10
2018-08-27T13:22:05.382Z,21.20
2018-08-27T13:24:34.687Z,21.40
2018-08-27T13:27:04.069Z,21.90
2018-08-27T13:29:33.594Z,21.70
2018-08-27T13:32:02.704Z,22.00
2018-08-27T13:34:31.871Z,21.80
2018-08-27T13:37:01.176Z,21.30
2018-08-27T13:39:30.706Z,21.40
2018-08-27T13:42:00.978Z,21.50
2018-08-27T13:44:30.390Z,21.20
2018-08-27T13:47:00.659Z,20.90
2018-08-27T13:49:30.004Z,20.80
2018-08-27T13:52:04.055Z,21.00
2018-08-27T13:54:33.724Z,21.20
2018-08-27T13:57:04.377Z,20.90
2018-08-27T13:59:34.701Z,20.90
2018-08-27T14:02:04.173Z,21.30
2018-08-27T14:04:33.444Z,21.70
2018-08-27T14:07:02.909Z,21.70
2018-08-27T14:09:32.365Z,21.60
2018-08-27T14:12:01.698Z,21.40
2018-08-27T14:14:31.069Z,21.20
2018-08-27T14:17:00.555Z,21.00
2018-08-27T14:19:30.683Z,21.10
2018-08-27T14:22:00.360Z,21.10
2018-08-27T14:24:30.897Z,21.10
2018-08-27T14:27:01.159Z,21.60
2018-08-27T14:29:30.536Z,22.10
2018-08-27T14:31:59.965Z,22.00
2018-08-27T14:34:29.509Z,22.20
2018-08-27T14:36:58.993Z,22.00
2018-08-27T14:39:28.322Z,21.80
2018-08-27T14:41:57.930Z,21.60
2018-08-27T14:44:28.406Z,21.40
2018-08-27T14:47:05.321Z,21.30
2018-08-27T14:49:36.888Z,21.20
2018-08-27T14:52:10.618Z,21.20
2018-08-27T14:54:40.787Z,21.20
2018-08-27T14:57:13.789Z,21.40
2018-08-27T14:59:45.597Z,21.50
2018-08-27T15:02:21.848Z,21.50
2018-08-27T15:04:52.652Z,21.60
2018-08-27T15:07:24.141Z,21.80
2018-08-27T15:10:05.805Z,21.70
2018-08-27T15:12:38.906Z,21.70
2018-08-27T15:15:12.857Z,21.80
2018-08-27T15:17:42.605Z,22.00
2018-08-27T15:20:12.104Z,22.20
2018-08-27T15:22:41.483Z,22.20
2018-08-27T15:25:11.023Z,22.10
2018-08-27T15:30:36.313Z,22.00
2018-08-27T15:33:06.259Z,22.00
2018-08-27T15:35:43.153Z,22.10
2018-08-27T15:38:13.114Z,22.00
2018-08-27T15:40:43.379Z,22.00
2018-08-27T15:43:12.741Z,21.90
2018-08-27T15:45:47.771Z,21.70
2018-08-27T15:48:17.396Z,21.60
2018-08-27T15:50:47.239Z,21.60
2018-08-27T15:53:18.074Z,21.50
2018-08-27T15:55:48.243Z,21.50
2018-08-27T15:58:17.803Z,21.50
2018-08-27T16:00:47.508Z,21.60
2018-08-27T16:03:17.063Z,21.70
2018-08-27T16:05:46.554Z,22.00
2018-08-27T16:08:16.024Z,21.90
2018-08-27T16:10:45.531Z,21.70
2018-08-27T16:13:15.089Z,21.50
2018-08-27T16:15:44.577Z,21.40
2018-08-27T16:18:14.568Z,21.40
2018-08-27T16:20:44.088Z,21.40
2018-08-27T16:23:13.572Z,21.50
2018-08-27T16:25:43.190Z,21.40
2018-08-27T16:28:13.660Z,21.30
2018-08-27T16:30:43.403Z,21.00
2018-08-27T16:33:13.010Z,21.00
2018-08-27T16:35:42.660Z,21.10
2018-08-27T16:38:12.022Z,21.20
2018-08-27T16:40:41.458Z,21.00
2018-08-27T16:43:11.033Z,20.90
2018-08-27T16:45:40.637Z,20.90
2018-08-27T16:48:10.887Z,21.00
2018-08-27T16:50:40.445Z,21.00
2018-08-27T16:53:09.874Z,20.80
2018-08-27T16:55:39.206Z,20.80
2018-08-27T16:58:08.820Z,20.70
2018-08-27T17:00:38.327Z,20.70
2018-08-27T17:03:08.720Z,20.70
2018-08-27T17:05:38.143Z,20.60
2018-08-27T17:08:07.525Z,20.60
2018-08-27T17:10:36.986Z,20.60
2018-08-27T17:13:06.447Z,20.60
2018-08-27T17:15:35.864Z,20.60
2018-08-27T17:18:05.207Z,20.60
2018-08-27T17:20:34.502Z,20.60
2018-08-27T17:23:04.199Z,20.60
2018-08-27T17:25:33.542Z,20.70
2018-08-27T17:28:03.349Z,20.70
2018-08-27T17:30:32.855Z,20.60
2018-08-27T17:33:02.266Z,20.50
2018-08-27T17:35:31.508Z,20.60
2018-08-27T17:38:00.980Z,20.60
2018-08-27T17:40:30.314Z,20.60
2018-08-27T17:42:59.807Z,20.50
2018-08-27T17:45:29.293Z,20.50
2018-08-27T17:47:58.554Z,20.50
2018-08-27T17:50:28.290Z,20.40
2018-08-27T17:52:57.702Z,20.30
2018-08-27T17:55:27.274Z,20.20
2018-08-27T17:57:56.657Z,20.10
2018-08-27T18:00:25.999Z,20.00
2018-08-27T18:02:55.502Z,19.90
2018-08-27T18:05:24.806Z,19.70
2018-08-27T18:07:54.283Z,19.60
2018-08-27T18:10:23.760Z,19.60
2018-08-27T18:12:53.275Z,19.60
2018-08-27T18:15:22.965Z,19.50
2018-08-27T18:17:52.277Z,19.50
2018-08-27T18:20:21.716Z,19.40
2018-08-27T18:22:51.073Z,19.30
2018-08-27T18:25:20.625Z,19.30
2018-08-27T18:27:50.034Z,19.30
2018-08-27T18:30:19.532Z,19.30
2018-08-27T18:32:48.928Z,19.30
2018-08-27T18:35:18.371Z,19.20
2018-08-27T18:37:47.802Z,19.20
2018-08-27T18:40:17.267Z,19.10
2018-08-27T18:42:46.733Z,18.90
2018-08-27T18:45:16.215Z,18.80
2018-08-27T18:47:45.651Z,18.70
2018-08-27T18:50:14.980Z,18.60
2018-08-27T18:52:44.303Z,18.60
2018-08-27T18:55:13.752Z,18.40
2018-08-27T18:57:43.226Z,18.40
2018-08-27T19:00:12.653Z,18.40
2018-08-27T19:02:42.122Z,18.30
2018-08-27T19:05:11.507Z,18.30
2018-08-27T19:07:40.985Z,18.20
2018-08-27T19:10:10.504Z,18.20
2018-08-27T19:12:40.033Z,18.20
2018-08-27T19:15:09.514Z,18.40
2018-08-27T19:17:38.912Z,18.40
2018-08-27T19:20:08.397Z,18.30
2018-08-27T19:22:37.823Z,18.30
2018-08-27T19:25:07.300Z,18.30
2018-08-27T19:27:36.786Z,18.30
2018-08-27T19:30:06.583Z,18.30
2018-08-27T19:32:36.008Z,18.20
2018-08-27T19:35:05.648Z,18.00
2018-08-27T19:37:35.002Z,18.00
2018-08-27T19:40:04.437Z,17.90
2018-08-27T19:42:33.943Z,17.80
2018-08-27T19:45:03.448Z,17.60
2018-08-27T19:47:32.815Z,17.50
2018-08-27T19:50:02.485Z,17.60
2018-08-27T19:52:31.945Z,17.60
2018-08-27T19:55:01.273Z,17.70
2018-08-27T19:57:30.815Z,17.50
2018-08-27T20:00:00.155Z,17.60
2018-08-27T20:02:29.656Z,17.50
2018-08-27T20:04:59.044Z,17.40
2018-08-27T20:07:28.583Z,17.50
2018-08-27T20:09:58.081Z,17.50
2018-08-27T20:12:27.655Z,17.60
2018-08-27T20:14:57.059Z,17.70
2018-08-27T20:17:26.633Z,17.60
2018-08-27T20:19:56.130Z,17.70
2018-08-27T20:22:26.772Z,17.70
2018-08-27T20:24:56.220Z,17.60
2018-08-27T20:27:25.749Z,17.60
2018-08-27T20:29:55.339Z,17.50
2018-08-27T20:32:24.960Z,17.60
2018-08-27T20:34:54.339Z,17.60
2018-08-27T20:37:24.072Z,17.50
2018-08-27T20:39:53.631Z,17.50
2018-08-27T20:42:22.951Z,17.50
2018-08-27T20:44:52.579Z,17.40
2018-08-27T20:47:22.975Z,17.30
2018-08-27T20:49:53.470Z,17.20
2018-08-27T20:52:24.050Z,17.10
2018-08-27T20:54:53.572Z,17.20
2018-08-27T20:57:23.653Z,17.20
2018-08-27T20:59:53.352Z,17.10
2018-08-27T21:02:22.771Z,17.10
2018-08-27T21:04:52.340Z,17.00
2018-08-27T21:07:21.705Z,17.00
2018-08-27T21:09:51.076Z,17.00
2018-08-27T21:12:20.459Z,17.10
2018-08-27T21:15:19.578Z,17.20
2018-08-27T21:17:50.340Z,17.20
2018-08-27T21:20:20.733Z,17.30
2018-08-27T21:22:50.110Z,17.10
2018-08-27T21:25:19.794Z,17.10
2018-08-27T21:27:50.267Z,17.00
2018-08-27T21:30:21.447Z,16.90
2018-08-27T21:32:50.795Z,16.80
2018-08-27T21:35:20.094Z,16.80
2018-08-27T21:37:49.344Z,16.70
2018-08-27T21:40:18.633Z,16.70
2018-08-27T21:42:47.973Z,16.70
2018-08-27T21:45:17.471Z,16.70
2018-08-27T21:47:46.958Z,16.70
2018-08-27T21:50:16.280Z,16.70
2018-08-27T21:52:45.684Z,16.60
2018-08-27T21:55:15.021Z,16.60
2018-08-27T21:57:44.422Z,16.50
2018-08-27T22:00:13.883Z,16.50
2018-08-27T22:02:48.744Z,16.50
2018-08-27T22:05:18.162Z,16.40
2018-08-27T22:07:47.566Z,16.40
2018-08-27T22:10:16.913Z,16.40
2018-08-27T22:12:46.290Z,16.30
2018-08-27T22:15:15.744Z,16.30
2018-08-27T22:17:53.499Z,16.30
2018-08-27T22:20:23.488Z,16.30
2018-08-27T22:22:52.893Z,16.30
2018-08-27T22:25:22.371Z,16.30
2018-08-27T22:27:51.768Z,16.30
2018-08-27T22:30:21.193Z,16.20
2018-08-27T22:32:50.698Z,16.20
2018-08-27T22:35:20.101Z,16.20
2018-08-27T22:37:49.489Z,16.10
2018-08-27T22:40:18.881Z,16.10
2018-08-27T22:42:48.314Z,16.10
2018-08-27T22:45:17.668Z,16.10
2018-08-27T22:47:47.298Z,15.90
2018-08-27T22:50:16.657Z,16.10
2018-08-27T22:52:46.062Z,16.10
2018-08-27T22:55:15.395Z,16.10
2018-08-27T22:57:44.710Z,16.10
2018-08-27T23:00:14.095Z,16.00
2018-08-27T23:02:48.598Z,15.90
2018-08-27T23:05:18.136Z,16.00
2018-08-27T23:07:47.523Z,15.90
2018-08-27T23:10:16.809Z,15.80
2018-08-27T23:12:46.130Z,15.70
2018-08-27T23:15:15.441Z,15.70
2018-08-27T23:17:44.765Z,15.30
2018-08-27T23:20:14.210Z,15.20
2018-08-27T23:22:43.565Z,15.10
2018-08-27T23:25:12.942Z,14.90
2018-08-27T23:27:42.262Z,14.70
2018-08-27T23:30:11.550Z,14.60
2018-08-27T23:32:40.929Z,14.60
2018-08-27T23:35:10.235Z,14.50
2018-08-27T23:37:39.744Z,14.40
2018-08-27T23:40:09.177Z,14.50
2018-08-27T23:42:38.533Z,14.40
2018-08-27T23:45:07.967Z,14.40
2018-08-27T23:47:37.368Z,14.40
2018-08-27T23:50:06.964Z,14.40
2018-08-27T23:52:36.319Z,14.40
2018-08-27T23:55:05.771Z,14.30
2018-08-27T23:57:35.314Z,14.20
